Time;durP1;ratioP1;P1;durP2;ratioP2;P2;SDS_P1;SDS_P2;PMS_P1;PMS_P2;Temp;Humidity;BMP_temperature;BMP_pressure;BME280_temperature;BME280_humidity;BME280_pressure;Samples;Min_cycle;Max_cycle;Signal;HPM_P1;HPM_P2
2022/05/23 00:00:05;;;;;;;;;;;;;;;1.65;67.44;98050.97;5050444;28;20226;-64
2022/05/23 00:02:30;;;;;;;;;;;;;;;1.63;66.87;98066.09;5055746;28;19929;-63
2022/05/23 00:04:56;;;;;;;;;;;;;;;1.58;67.03;98053.66;5051681;28;19979;-62
2022/05/23 00:07:23;;;;;;;;;;;;;;;1.55;67.07;98061.91;5056114;28;19998;-64
2022/05/23 00:09:49;;;;;;;;;;;;;;;1.54;67.06;98060.31;5051879;28;20019;-63
2022/05/23 00:12:15;;;;;;;;;;;;;;;1.53;67.66;98054.28;5055423;28;20415;-64
2022/05/23 00:14:42;;;;;;;;;;;;;;;1.47;67.80;98059.53;5061440;28;19925;-63
2022/05/23 00:17:09;;;;;;;;;;;;;;;1.40;68.11;98051.75;5053534;28;20301;-64
2022/05/23 00:19:34;;;;;;;;;;;;;;;1.40;68.06;98059.59;5053353;28;19951;-63
2022/05/23 00:22:02;;;;;;;;;;;;;;;1.33;68.86;98051.00;5054512;28;19936;-65
2022/05/23 00:24:28;;;;;;;;;;;;;;;1.32;68.54;98065.06;5074271;28;19931;-64
2022/05/23 00:26:53;;;;;;;;;;;;;;;1.30;68.40;98064.47;5067097;28;19952;-64
2022/05/23 00:29:19;;;;;;;;;;;;;;;1.26;68.36;98071.91;5072682;28;19975;-63
2022/05/23 00:37:13;;;;;;;;;;;;;;;1.21;67.88;98057.91;5054938;28;19957;-64
2022/05/23 00:39:38;;;;;;;;;;;;;;;1.21;68.84;98063.13;5059359;28;20031;-63
2022/05/23 00:44:53;;;;;;;;;;;;;;;1.20;67.87;98064.13;5073954;28;20027;-63
2022/05/23 00:47:20;;;;;;;;;;;;;;;1.17;68.16;98067.94;5035373;28;19929;-64
2022/05/23 00:49:46;;;;;;;;;;;;;;;1.16;68.95;98068.19;5049327;28;19932;-63
2022/05/23 00:52:13;;;;;;;;;;;;;;;1.15;68.54;98059.56;5054878;28;19932;-64
2022/05/23 00:54:42;;;;;;;;;;;;;;;1.16;68.87;98073.41;5053582;28;19925;-64
2022/05/23 00:57:09;;;;;;;;;;;;;;;1.11;69.41;98064.38;5053419;28;20302;-62
2022/05/23 00:59:34;;;;;;;;;;;;;;;1.12;68.83;98065.97;5061634;28;20385;-64
2022/05/23 01:02:01;;;;;;;;;;;;;;;1.14;69.01;98068.38;5063452;28;19929;-64
2022/05/23 01:04:36;;;;;;;;;;;;;;;1.18;68.68;98060.91;5050872;28;20015;-63
2022/05/23 01:07:01;;;;;;;;;;;;;;;1.21;68.41;98070.97;5013361;28;20435;-64
2022/05/23 01:09:27;;;;;;;;;;;;;;;1.19;68.79;98065.16;5037122;28;20014;-63
2022/05/23 01:11:54;;;;;;;;;;;;;;;1.21;68.56;98066.53;5033381;28;19929;-62
2022/05/23 01:14:20;;;;;;;;;;;;;;;1.22;68.70;98069.94;5047769;28;20042;-63
2022/05/23 01:16:45;;;;;;;;;;;;;;;1.20;69.13;98079.78;5062604;28;19936;-64
2022/05/23 01:19:11;;;;;;;;;;;;;;;1.15;68.55;98075.22;5065538;28;19927;-64
2022/05/23 01:21:38;;;;;;;;;;;;;;;1.18;68.47;98071.34;5053548;28;19974;-65
2022/05/23 01:24:04;;;;;;;;;;;;;;;1.35;68.16;98064.63;5055409;28;19928;-64
2022/05/23 01:26:36;;;;;;;;;;;;;;;1.74;67.02;98070.63;5053576;28;20460;-63
2022/05/23 01:29:07;;;;;;;;;;;;;;;2.09;65.19;98076.16;5037922;28;20015;-63
2022/05/23 01:31:41;;;;;;;;;;;;;;;2.47;64.19;98078.63;5059429;28;20425;-65
2022/05/23 01:34:15;;;;;;;;;;;;;;;2.70;63.24;98066.69;5065770;28;19978;-63
2022/05/23 01:36:50;;;;;;;;;;;;;;;2.96;62.15;98066.38;5052000;28;19929;-62
2022/05/23 01:39:17;;;;;;;;;;;;;;;3.34;60.80;98072.34;5055887;28;19931;-63
2022/05/23 01:41:42;;;;;;;;;;;;;;;3.78;59.64;98070.31;5060704;28;19929;-63
2022/05/23 01:44:08;;;;;;;;;;;;;;;4.22;57.60;98065.56;5037785;28;19964;-63
2022/05/23 01:46:37;;;;;;;;;;;;;;;4.61;56.07;98066.66;5053564;28;19935;-63
2022/05/23 01:49:22;;;;;;;;;;;;;;;5.13;54.39;98069.25;5055834;28;20472;-63
2022/05/23 01:51:48;;;;;;;;;;;;;;;5.62;53.15;98066.19;5056435;28;20031;-62
2022/05/23 01:54:15;;;;;;;;;;;;;;;5.92;51.49;98068.50;5055409;28;20301;-63
2022/05/23 01:56:44;;;;;;;;;;;;;;;6.23;50.24;98069.00;5050649;28;20394;-62
2022/05/23 02:02:01;;;;;;;;;;;;;;;6.93;48.86;98072.81;5072755;28;20369;-62
2022/05/23 02:04:31;;;;;;;;;;;;;;;7.10;48.04;98068.28;5043595;28;20301;-64
2022/05/23 02:06:57;;;;;;;;;;;;;;;7.26;47.35;98064.78;5054658;28;19928;-63
2022/05/23 02:09:26;;;;;;;;;;;;;;;7.48;47.06;98071.84;5052581;28;20306;-62
2022/05/23 02:12:21;;;;;;;;;;;;;;;7.73;46.39;98071.25;5032272;28;19939;-62
2022/05/23 02:14:49;;;;;;;;;;;;;;;7.89;45.75;98075.63;5043251;28;19935;-63
2022/05/23 02:17:33;;;;;;;;;;;;;;;8.10;44.90;98070.50;5058368;28;20028;-64
2022/05/23 02:19:59;;;;;;;;;;;;;;;8.32;44.50;98071.16;5060844;28;20015;-63
2022/05/23 02:22:24;;;;;;;;;;;;;;;8.68;43.80;98066.13;5041117;28;19928;-62
2022/05/23 02:25:02;;;;;;;;;;;;;;;9.07;42.71;98076.31;5037453;28;20455;-63
2022/05/23 02:27:29;;;;;;;;;;;;;;;9.30;41.65;98078.50;5051724;28;19935;-63
2022/05/23 02:29:55;;;;;;;;;;;;;;;9.62;42.15;98084.63;5057999;28;19993;-64
2022/05/23 02:32:21;;;;;;;;;;;;;;;9.77;41.00;98079.38;5053303;28;20409;-64
2022/05/23 02:34:47;;;;;;;;;;;;;;;9.96;41.26;98084.94;5052720;28;20043;-64
2022/05/23 02:37:12;;;;;;;;;;;;;;;10.20;40.29;98072.72;5051658;28;20473;-63
2022/05/23 02:39:43;;;;;;;;;;;;;;;10.17;40.46;98088.38;5051759;28;19931;-63
2022/05/23 02:42:09;;;;;;;;;;;;;;;10.09;40.65;98081.78;5044342;28;20023;-64
2022/05/23 02:44:36;;;;;;;;;;;;;;;10.10;39.86;98082.56;5046254;28;19932;-63
2022/05/23 02:47:03;;;;;;;;;;;;;;;10.18;39.47;98076.75;5040462;28;19933;-63
2022/05/23 02:49:31;;;;;;;;;;;;;;;10.52;39.72;98076.16;5039518;28;19924;-64
2022/05/23 02:52:00;;;;;;;;;;;;;;;10.86;38.74;98069.16;5060783;28;19981;-63
2022/05/23 02:54:34;;;;;;;;;;;;;;;11.17;38.97;98070.88;5041795;28;19921;-62
2022/05/23 02:57:02;;;;;;;;;;;;;;;11.40;38.44;98075.53;5043821;28;21651;-63
2022/05/23 02:59:28;;;;;;;;;;;;;;;11.62;37.58;98074.34;5065219;28;19965;-65
2022/05/23 03:04:48;;;;;;;;;;;;;;;11.71;37.55;98068.19;5054581;28;19924;-63
2022/05/23 03:07:15;;;;;;;;;;;;;;;11.58;37.36;98072.22;5071259;28;20348;-62
2022/05/23 03:09:46;;;;;;;;;;;;;;;11.56;37.20;98070.94;5070749;28;19977;-63
2022/05/23 03:12:17;;;;;;;;;;;;;;;11.62;37.98;98075.16;5072757;28;19974;-63
2022/05/23 03:14:43;;;;;;;;;;;;;;;11.49;37.83;98078.41;5063592;28;19968;-62
2022/05/23 03:17:09;;;;;;;;;;;;;;;11.70;37.35;98079.84;5052869;28;20047;-62
2022/05/23 03:19:38;;;;;;;;;;;;;;;11.60;37.37;98080.72;5056593;28;19924;-62
2022/05/23 03:27:36;;;;;;;;;;;;;;;11.98;36.98;98091.63;5070881;28;19935;-62
2022/05/23 03:30:12;;;;;;;;;;;;;;;12.22;36.12;98094.34;5067927;28;19925;-63
2022/05/23 03:32:50;;;;;;;;;;;;;;;12.18;35.96;98095.19;5050782;28;20418;-63
2022/05/23 03:35:16;;;;;;;;;;;;;;;12.11;36.13;98092.84;5062348;28;19925;-63
2022/05/23 03:37:42;;;;;;;;;;;;;;;12.00;36.20;98086.03;5070765;28;19936;-63
2022/05/23 03:40:09;;;;;;;;;;;;;;;11.57;36.88;98086.59;5060738;28;19924;-62
2022/05/23 03:42:39;;;;;;;;;;;;;;;11.34;37.17;98092.56;5018017;28;19933;-64
2022/05/23 03:45:06;;;;;;;;;;;;;;;11.20;37.47;98089.69;5050810;28;20374;-64
2022/05/23 03:47:40;;;;;;;;;;;;;;;11.36;37.45;98079.81;5050498;28;19929;-63
2022/05/23 03:50:12;;;;;;;;;;;;;;;11.22;37.94;98081.47;5059858;28;20389;-63
2022/05/23 03:52:38;;;;;;;;;;;;;;;10.89;38.70;98076.59;5059501;28;20024;-63
2022/05/23 03:55:05;;;;;;;;;;;;;;;11.12;37.88;98080.47;5039519;28;20005;-64
2022/05/23 03:57:30;;;;;;;;;;;;;;;10.96;37.82;98068.34;5071656;28;19981;-64
2022/05/23 03:59:57;;;;;;;;;;;;;;;10.96;38.39;98078.94;5070196;28;19924;-63
2022/05/23 04:02:23;;;;;;;;;;;;;;;11.09;38.43;98069.63;5052383;28;19928;-64
2022/05/23 04:04:49;;;;;;;;;;;;;;;11.23;37.97;98075.09;5031615;28;19929;-63
2022/05/23 04:07:38;;;;;;;;;;;;;;;11.55;37.48;98067.47;5032233;28;19928;-63
2022/05/23 04:10:14;;;;;;;;;;;;;;;11.50;36.99;98064.06;5017007;28;20305;-62
2022/05/23 04:12:40;;;;;;;;;;;;;;;11.52;37.68;98073.34;5032012;28;19983;-63
2022/05/23 04:15:06;;;;;;;;;;;;;;;10.95;38.77;98072.06;5048628;28;20062;-64
2022/05/23 04:17:32;;;;;;;;;;;;;;;11.45;37.85;98069.41;5015975;28;20053;-62
2022/05/23 04:19:57;;;;;;;;;;;;;;;11.34;36.97;98071.34;5032027;28;20386;-62
2022/05/23 04:22:24;;;;;;;;;;;;;;;11.09;38.02;98074.91;5031709;28;20027;-64
2022/05/23 04:25:00;;;;;;;;;;;;;;;10.67;39.38;98082.22;5048647;28;19925;-61
2022/05/23 04:27:26;;;;;;;;;;;;;;;10.45;39.40;98065.84;5032352;28;19928;-63
2022/05/23 04:29:51;;;;;;;;;;;;;;;10.36;39.69;98076.19;5048887;28;19931;-63
2022/05/23 04:35:14;;;;;;;;;;;;;;;10.50;39.36;98068.50;5048663;28;19936;-62
2022/05/23 04:37:45;;;;;;;;;;;;;;;10.31;39.94;98060.31;5032568;28;20022;-63
2022/05/23 04:40:13;;;;;;;;;;;;;;;10.40;39.23;98063.22;5051827;28;19925;-63
2022/05/23 04:42:38;;;;;;;;;;;;;;;10.26;39.92;98070.88;5033720;28;19936;-64
2022/05/23 04:45:05;;;;;;;;;;;;;;;10.34;39.42;98072.22;5035064;28;20027;-63
2022/05/23 04:50:23;;;;;;;;;;;;;;;10.36;40.30;98064.81;5051512;28;19932;-62
2022/05/23 04:52:53;;;;;;;;;;;;;;;10.62;39.43;98069.00;5069896;28;20299;-61
2022/05/23 04:55:22;;;;;;;;;;;;;;;10.79;39.01;98058.06;5070920;28;20409;-62
2022/05/23 04:57:47;;;;;;;;;;;;;;;10.83;38.62;98063.63;5016414;28;19929;-64
2022/05/23 05:00:14;;;;;;;;;;;;;;;10.93;39.44;98063.56;5050013;28;19924;-63
2022/05/23 05:02:49;;;;;;;;;;;;;;;10.50;38.48;98060.56;5069503;28;19932;-63
2022/05/23 05:05:16;;;;;;;;;;;;;;;10.49;38.42;98061.59;5069981;28;20362;-63
2022/05/23 05:07:50;;;;;;;;;;;;;;;10.49;38.58;98056.28;5073180;28;19971;-63
2022/05/23 05:10:16;;;;;;;;;;;;;;;10.60;38.40;98052.56;5045229;28;19960;-63
2022/05/23 05:12:42;;;;;;;;;;;;;;;10.67;38.38;98045.09;5038076;28;19928;-64
2022/05/23 05:15:12;;;;;;;;;;;;;;;10.62;38.02;98041.72;5037190;28;20321;-64
2022/05/23 05:17:38;;;;;;;;;;;;;;;10.57;37.70;98034.56;5067675;28;20039;-64
2022/05/23 05:20:03;;;;;;;;;;;;;;;10.54;38.12;98036.97;5060362;28;20023;-63
2022/05/23 05:22:58;;;;;;;;;;;;;;;10.34;38.91;98051.03;5070434;28;19929;-63
2022/05/23 05:25:51;;;;;;;;;;;;;;;10.31;38.81;98036.47;5073365;28;19967;-64
2022/05/23 05:28:22;;;;;;;;;;;;;;;10.36;38.99;98043.63;5073234;28;19931;-63
2022/05/23 05:30:56;;;;;;;;;;;;;;;10.34;38.60;98038.59;5060733;28;19932;-63
2022/05/23 05:33:22;;;;;;;;;;;;;;;10.30;37.78;98042.84;5069481;28;19924;-62
2022/05/23 05:35:49;;;;;;;;;;;;;;;10.34;37.94;98051.81;5055016;28;19935;-61
2022/05/23 05:38:37;;;;;;;;;;;;;;;10.30;38.01;98034.91;5037817;28;20307;-62
2022/05/23 05:41:13;;;;;;;;;;;;;;;10.22;37.10;98044.13;5031376;28;20024;-61
2022/05/23 05:43:49;;;;;;;;;;;;;;;10.04;37.35;98041.25;5032544;28;19925;-63
2022/05/23 05:46:17;;;;;;;;;;;;;;;10.10;37.75;98033.03;5033010;28;19936;-63
2022/05/23 05:48:48;;;;;;;;;;;;;;;10.08;36.60;98035.16;5020248;28;19924;-63
2022/05/23 05:51:15;;;;;;;;;;;;;;;10.05;36.55;98032.25;5053158;28;19982;-63
2022/05/23 05:54:01;;;;;;;;;;;;;;;10.23;36.32;98026.38;5052313;28;20400;-64
2022/05/23 05:56:37;;;;;;;;;;;;;;;10.33;37.03;98020.34;5020391;28;19928;-63
2022/05/23 05:59:03;;;;;;;;;;;;;;;10.57;36.59;98025.81;5070647;28;19931;-63
2022/05/23 06:01:30;;;;;;;;;;;;;;;10.98;35.28;98013.19;5072273;28;19932;-63
2022/05/23 06:03:56;;;;;;;;;;;;;;;11.09;35.13;98021.88;5035337;28;19924;-64
2022/05/23 06:12:11;;;;;;;;;;;;;;;10.98;34.22;98021.13;5052200;28;19982;-62
2022/05/23 06:14:40;;;;;;;;;;;;;;;10.78;33.97;98021.22;5020100;28;19978;-62
2022/05/23 06:17:07;;;;;;;;;;;;;;;10.72;35.06;98023.09;5049033;28;19982;-63
2022/05/23 06:19:40;;;;;;;;;;;;;;;10.71;34.15;98028.66;5054399;28;19964;-63
2022/05/23 06:22:14;;;;;;;;;;;;;;;10.44;34.74;98025.34;5025756;28;19928;-62
2022/05/23 06:24:51;;;;;;;;;;;;;;;10.49;33.87;98023.72;5068972;28;19931;-64
2022/05/23 06:27:16;;;;;;;;;;;;;;;10.39;34.59;98009.44;5044357;28;19933;-61
2022/05/23 06:30:05;;;;;;;;;;;;;;;10.45;33.63;98040.16;5034416;28;20388;-64
2022/05/23 06:32:53;;;;;;;;;;;;;;;10.18;34.47;98011.31;5050010;28;19929;-64
2022/05/23 06:35:31;;;;;;;;;;;;;;;10.08;35.27;98005.25;5056798;28;19951;-63
2022/05/23 06:37:57;;;;;;;;;;;;;;;10.06;34.25;98005.53;5055141;28;20398;-63
2022/05/23 06:40:50;;;;;;;;;;;;;;;9.95;35.79;98011.88;5056602;28;19929;-62
2022/05/23 06:43:34;;;;;;;;;;;;;;;10.06;34.98;97996.75;5071500;28;19925;-62
2022/05/23 06:46:18;;;;;;;;;;;;;;;10.01;35.04;97998.38;5070680;28;20313;-61
2022/05/23 06:49:22;;;;;;;;;;;;;;;10.10;34.80;97988.03;5027484;28;20396;-63
2022/05/23 06:52:08;;;;;;;;;;;;;;;9.99;35.24;97989.09;5021327;28;20076;-62
2022/05/23 06:54:49;;;;;;;;;;;;;;;10.17;34.52;97979.81;5050129;28;20043;-62
2022/05/23 06:57:18;;;;;;;;;;;;;;;10.21;34.52;97979.00;5058222;28;19970;-61
2022/05/23 06:59:44;;;;;;;;;;;;;;;10.14;35.96;97988.28;5059175;28;19967;-63
2022/05/23 07:02:10;;;;;;;;;;;;;;;10.20;34.91;97990.63;5045323;28;19964;-63
2022/05/23 07:14:20;;;;;;;;;;;;;;;10.29;35.77;97984.84;5023008;28;19925;-62
2022/05/23 07:16:48;;;;;;;;;;;;;;;10.20;35.99;97988.00;5053911;28;19929;-63
2022/05/23 07:19:15;;;;;;;;;;;;;;;10.31;36.23;97980.06;5052408;28;19930;-65
2022/05/23 07:21:59;;;;;;;;;;;;;;;10.55;35.96;97978.38;5044578;28;19929;-63
2022/05/23 07:24:32;;;;;;;;;;;;;;;10.58;36.75;97980.47;5050984;28;20433;-63
2022/05/23 07:27:03;;;;;;;;;;;;;;;10.58;35.10;97963.81;5053033;28;19932;-64
2022/05/23 07:29:29;;;;;;;;;;;;;;;10.60;35.42;97966.97;5065601;28;19951;-64
2022/05/23 07:31:58;;;;;;;;;;;;;;;10.67;34.56;97975.41;5051761;28;19928;-65
2022/05/23 07:34:25;;;;;;;;;;;;;;;10.73;35.04;97968.25;5050534;28;19932;-64
2022/05/23 07:36:51;;;;;;;;;;;;;;;10.65;34.68;97964.31;5067055;28;20376;-63
2022/05/23 07:39:17;;;;;;;;;;;;;;;10.75;34.71;97969.56;5053117;28;20012;-64
2022/05/23 07:41:50;;;;;;;;;;;;;;;10.75;35.22;97958.94;5063668;28;19933;-63
2022/05/23 07:44:21;;;;;;;;;;;;;;;10.66;34.85;97952.63;5050227;28;20377;-63
2022/05/23 07:46:46;;;;;;;;;;;;;;;10.77;35.72;97954.19;5038069;28;19929;-62
2022/05/23 07:49:15;;;;;;;;;;;;;;;10.88;34.99;97946.94;5017511;28;19928;-63
2022/05/23 07:51:55;;;;;;;;;;;;;;;10.79;34.00;97964.50;5047136;28;19951;-63
2022/05/23 08:00:34;;;;;;;;;;;;;;;10.61;34.89;97950.00;5055123;28;20405;-63
2022/05/23 08:03:16;;;;;;;;;;;;;;;10.66;34.94;97950.78;5017851;28;20383;-63
2022/05/23 08:05:45;;;;;;;;;;;;;;;10.61;34.82;97944.72;5046879;28;20012;-63
2022/05/23 08:08:13;;;;;;;;;;;;;;;10.74;35.04;97935.38;5070215;28;19925;-64
2022/05/23 08:10:39;;;;;;;;;;;;;;;10.91;35.48;97939.25;5063800;28;19932;-63
2022/05/23 08:13:09;;;;;;;;;;;;;;;11.11;34.31;97924.25;5051353;28;20015;-63
2022/05/23 08:15:37;;;;;;;;;;;;;;;11.18;34.18;97935.38;5053559;28;19950;-65
2022/05/23 08:18:07;;;;;;;;;;;;;;;11.23;34.92;97931.88;5052489;28;19971;-64
2022/05/23 08:20:37;;;;;;;;;;;;;;;11.18;33.47;97934.56;5033096;28;19971;-65
2022/05/23 08:23:03;;;;;;;;;;;;;;;11.24;33.76;97936.13;5054400;28;19931;-64
2022/05/23 08:26:03;;;;;;;;;;;;;;;11.33;33.71;97924.63;5018269;28;19935;-62
2022/05/23 08:28:32;;;;;;;;;;;;;;;11.19;33.86;97939.59;5000117;28;20054;-63
2022/05/23 08:30:57;;;;;;;;;;;;;;;11.37;33.68;97938.13;5014955;28;20498;-64
2022/05/23 08:33:27;;;;;;;;;;;;;;;11.26;34.55;97933.97;5030254;28;19925;-63
2022/05/23 08:36:05;;;;;;;;;;;;;;;11.35;34.35;97913.72;5015025;28;19975;-63
2022/05/23 08:38:30;;;;;;;;;;;;;;;11.30;33.25;97927.06;5048029;28;19925;-63
2022/05/23 08:41:05;;;;;;;;;;;;;;;11.31;33.46;97925.97;5033800;28;20328;-64
2022/05/23 08:43:48;;;;;;;;;;;;;;;11.42;33.43;97918.75;5035511;28;20357;-64
2022/05/23 08:46:40;;;;;;;;;;;;;;;11.40;33.71;97916.34;5052478;28;19964;-63
2022/05/23 08:49:08;;;;;;;;;;;;;;;11.58;33.80;97917.50;5046157;28;20386;-63
2022/05/23 08:52:03;;;;;;;;;;;;;;;11.75;33.75;97922.41;5019136;28;19973;-65
2022/05/23 08:54:33;;;;;;;;;;;;;;;11.69;32.67;97926.19;5017628;28;19931;-65
2022/05/23 08:57:23;;;;;;;;;;;;;;;11.46;32.14;97925.06;5054605;28;19943;-63
2022/05/23 08:59:52;;;;;;;;;;;;;;;11.50;33.19;97915.47;5071565;28;20055;-64
2022/05/23 09:02:47;;;;;;;;;;;;;;;11.53;33.43;97922.88;5068954;28;19985;-65
2022/05/23 09:05:35;;;;;;;;;;;;;;;11.84;33.10;97928.69;5047145;28;19959;-62
2022/05/23 09:08:04;;;;;;;;;;;;;;;11.89;32.77;97910.09;5034550;28;19929;-63
2022/05/23 09:10:49;;;;;;;;;;;;;;;11.91;33.08;97917.75;5055923;28;19932;-63
2022/05/23 09:13:16;;;;;;;;;;;;;;;12.05;33.27;97910.69;5050647;28;20442;-62
2022/05/23 09:15:41;;;;;;;;;;;;;;;11.95;32.34;97908.19;5053399;28;20031;-63
2022/05/23 09:18:11;;;;;;;;;;;;;;;12.02;32.11;97911.28;5034806;28;20019;-61
2022/05/23 09:20:39;;;;;;;;;;;;;;;12.04;31.94;97917.09;5065208;28;19960;-61
2022/05/23 09:23:07;;;;;;;;;;;;;;;11.85;31.93;97917.00;5052036;28;19924;-61
2022/05/23 09:25:34;;;;;;;;;;;;;;;11.88;33.09;97911.13;5054210;28;19928;-61
2022/05/23 09:28:09;;;;;;;;;;;;;;;11.89;32.25;97923.38;5074236;28;20027;-61
2022/05/23 09:30:34;;;;;;;;;;;;;;;11.93;32.56;97910.31;5072721;28;19928;-63
2022/05/23 09:33:00;;;;;;;;;;;;;;;11.94;32.51;97911.88;5052617;28;20035;-61
2022/05/23 09:35:29;;;;;;;;;;;;;;;11.91;32.79;97899.16;5049268;28;20109;-63
2022/05/23 09:38:15;;;;;;;;;;;;;;;11.87;32.36;97898.94;5054123;28;19928;-62
2022/05/23 09:41:07;;;;;;;;;;;;;;;11.86;32.25;97905.34;5064775;28;19928;-62
2022/05/23 09:49:07;;;;;;;;;;;;;;;11.95;31.63;97898.34;5054709;28;20605;-62
2022/05/23 09:51:39;;;;;;;;;;;;;;;11.95;32.32;97911.63;5070154;28;20503;-62
2022/05/23 09:54:05;;;;;;;;;;;;;;;11.89;31.94;97898.69;5046805;28;19932;-63
2022/05/23 09:56:37;;;;;;;;;;;;;;;12.04;32.09;97893.19;5067447;28;19928;-60
2022/05/23 09:59:04;;;;;;;;;;;;;;;12.00;32.25;97908.09;5059155;28;19925;-62
2022/05/23 10:01:39;;;;;;;;;;;;;;;11.96;32.41;97901.78;5069224;28;19936;-62
2022/05/23 10:04:13;;;;;;;;;;;;;;;12.04;31.88;97899.28;5051682;28;19924;-62
2022/05/23 10:06:42;;;;;;;;;;;;;;;12.09;32.12;97895.81;5047145;28;19933;-65
2022/05/23 10:09:08;;;;;;;;;;;;;;;12.12;32.48;97897.88;5051784;28;19924;-63
2022/05/23 10:11:43;;;;;;;;;;;;;;;12.23;32.72;97901.19;5049273;28;19943;-62
2022/05/23 10:14:15;;;;;;;;;;;;;;;12.30;32.92;97901.66;5059613;28;19925;-64
2022/05/23 10:16:43;;;;;;;;;;;;;;;12.21;33.10;97890.88;5047670;28;20318;-63
2022/05/23 10:19:09;;;;;;;;;;;;;;;12.13;31.56;97901.34;5061535;28;19928;-62
2022/05/23 10:21:41;;;;;;;;;;;;;;;12.18;32.07;97903.94;5046522;28;19936;-62
2022/05/23 10:24:27;;;;;;;;;;;;;;;12.21;32.14;97901.50;5073212;28;19924;-61
2022/05/23 10:26:56;;;;;;;;;;;;;;;12.25;32.61;97886.56;5070229;28;20309;-62
2022/05/23 10:29:40;;;;;;;;;;;;;;;12.33;32.10;97876.41;5063236;28;19979;-63
2022/05/23 10:32:07;;;;;;;;;;;;;;;12.30;31.54;97891.03;5064453;28;19928;-64
2022/05/23 10:35:06;;;;;;;;;;;;;;;12.24;31.86;97892.16;5035911;28;20042;-62
2022/05/23 10:37:37;;;;;;;;;;;;;;;12.29;32.21;97908.03;5023308;28;19935;-62
2022/05/23 10:43:09;;;;;;;;;;;;;;;12.43;31.70;97879.69;5035172;28;19935;-63
2022/05/23 10:45:53;;;;;;;;;;;;;;;12.52;31.58;97893.13;5072043;28;19928;-62
2022/05/23 10:48:45;;;;;;;;;;;;;;;12.61;32.82;97880.00;5070730;28;19963;-62
2022/05/23 10:51:14;;;;;;;;;;;;;;;12.46;32.78;97900.38;5048997;28;19929;-62
2022/05/23 10:53:50;;;;;;;;;;;;;;;12.48;32.46;97894.78;5052322;28;19929;-62
2022/05/23 10:56:16;;;;;;;;;;;;;;;12.60;32.48;97881.06;5051096;28;19936;-62
2022/05/23 10:59:05;;;;;;;;;;;;;;;12.74;32.74;97879.28;5069360;28;19924;-61
2022/05/23 11:01:49;;;;;;;;;;;;;;;12.83;32.20;97893.50;5044136;28;20456;-64
2022/05/23 11:04:15;;;;;;;;;;;;;;;12.84;31.99;97884.44;5049704;28;19924;-62
2022/05/23 11:07:00;;;;;;;;;;;;;;;12.92;31.81;97873.16;5051234;28;19928;-61
2022/05/23 11:09:29;;;;;;;;;;;;;;;13.06;31.33;97885.72;5050142;28;19921;-63
2022/05/23 11:11:57;;;;;;;;;;;;;;;12.93;30.05;97876.59;5050367;28;19975;-62
2022/05/23 11:14:32;;;;;;;;;;;;;;;12.88;30.52;97895.28;5049893;28;19921;-63
2022/05/23 11:17:16;;;;;;;;;;;;;;;12.91;31.34;97882.22;5048842;28;20279;-62
2022/05/23 11:19:41;;;;;;;;;;;;;;;12.99;31.30;97864.03;5049904;28;19966;-63
2022/05/23 11:22:14;;;;;;;;;;;;;;;12.98;30.52;97875.75;5049127;28;19928;-62
2022/05/23 11:24:41;;;;;;;;;;;;;;;13.03;30.66;97859.69;5070222;28;20364;-62
2022/05/23 11:35:28;;;;;;;;;;;;;;;12.92;29.28;97877.69;5070887;28;20401;-63
2022/05/23 11:37:54;;;;;;;;;;;;;;;12.95;29.33;97871.78;5038186;28;19975;-62
2022/05/23 11:40:23;;;;;;;;;;;;;;;13.04;29.18;97870.06;5071734;28;19928;-62
2022/05/23 11:42:55;;;;;;;;;;;;;;;12.96;28.87;97871.50;5070098;28;19977;-61
2022/05/23 11:48:34;;;;;;;;;;;;;;;13.10;27.85;97874.22;5051872;28;19935;-63
2022/05/23 11:51:15;;;;;;;;;;;;;;;13.05;28.55;97884.91;5029802;28;20349;-64
2022/05/23 11:53:59;;;;;;;;;;;;;;;13.01;27.40;97883.16;5051891;28;19931;-66
2022/05/23 11:56:31;;;;;;;;;;;;;;;12.94;26.80;97881.66;5071305;28;19928;-63
2022/05/23 11:58:57;;;;;;;;;;;;;;;12.93;27.38;97884.59;5056403;28;20332;-64
2022/05/23 12:01:26;;;;;;;;;;;;;;;12.90;27.06;97877.19;5052228;28;19928;-63
2022/05/23 12:03:55;;;;;;;;;;;;;;;12.90;27.46;97898.47;5070032;28;19924;-63
2022/05/23 12:06:24;;;;;;;;;;;;;;;12.95;27.54;97891.19;5069738;28;20071;-64
2022/05/23 12:09:09;;;;;;;;;;;;;;;12.96;26.96;97878.69;5053079;28;20390;-63
2022/05/23 12:11:36;;;;;;;;;;;;;;;12.94;26.90;97883.50;5053084;28;19928;-65
2022/05/23 12:14:21;;;;;;;;;;;;;;;12.94;26.70;97873.66;5032838;28;19931;-63
2022/05/23 12:16:50;;;;;;;;;;;;;;;12.95;26.60;97859.28;5070702;28;20441;-64
2022/05/23 12:19:34;;;;;;;;;;;;;;;13.00;26.78;97874.38;5071335;28;19924;-63
2022/05/23 12:22:15;;;;;;;;;;;;;;;13.12;27.49;97877.38;5071153;28;19955;-64
2022/05/23 12:24:56;;;;;;;;;;;;;;;13.20;26.85;97889.22;5069764;28;20023;-64
2022/05/23 12:27:33;;;;;;;;;;;;;;;13.23;25.97;97879.84;5050635;28;20022;-64
2022/05/23 12:30:17;;;;;;;;;;;;;;;13.22;26.36;97872.97;5050860;28;19929;-64
2022/05/23 12:32:43;;;;;;;;;;;;;;;13.27;26.59;97864.94;5049122;28;20371;-63
2022/05/23 12:35:08;;;;;;;;;;;;;;;13.27;25.59;97876.38;5054575;28;20027;-64
2022/05/23 12:37:37;;;;;;;;;;;;;;;13.27;25.17;97878.25;5071569;28;20377;-63
2022/05/23 12:40:06;;;;;;;;;;;;;;;13.24;25.60;97878.81;5068579;28;19975;-64
2022/05/23 12:42:41;;;;;;;;;;;;;;;13.22;26.04;97865.78;5069597;28;20126;-64
2022/05/23 12:45:16;;;;;;;;;;;;;;;13.21;26.14;97871.38;5070218;28;19924;-65
2022/05/23 12:47:44;;;;;;;;;;;;;;;13.25;26.60;97870.53;5065857;28;19929;-65
2022/05/23 12:50:22;;;;;;;;;;;;;;;13.33;25.68;97859.22;5048946;28;19933;-64
2022/05/23 12:52:57;;;;;;;;;;;;;;;13.39;25.53;97850.06;5049276;28;20376;-63
2022/05/23 12:55:26;;;;;;;;;;;;;;;13.41;25.12;97863.06;5049181;28;19925;-65
2022/05/23 12:57:58;;;;;;;;;;;;;;;13.33;24.98;97856.56;5048523;28;19936;-65
2022/05/23 13:00:32;;;;;;;;;;;;;;;13.39;24.71;97857.28;5049544;28;19990;-64
2022/05/23 13:03:07;;;;;;;;;;;;;;;13.47;24.61;97845.16;5049339;28;19929;-64
2022/05/23 13:05:36;;;;;;;;;;;;;;;13.57;24.86;97850.31;5037794;28;19928;-65
2022/05/23 13:08:15;;;;;;;;;;;;;;;13.61;24.03;97851.28;5033220;28;19971;-65
2022/05/23 13:10:41;;;;;;;;;;;;;;;13.58;24.78;97847.34;5048745;28;19940;-64
2022/05/23 13:13:13;;;;;;;;;;;;;;;13.48;23.79;97844.88;5049103;28;19986;-63
2022/05/23 13:15:39;;;;;;;;;;;;;;;13.49;23.80;97849.09;5048957;28;19929;-64
2022/05/23 13:23:35;;;;;;;;;;;;;;;13.48;23.29;97862.72;5049286;28;19931;-65
2022/05/23 13:26:08;;;;;;;;;;;;;;;13.52;22.96;97847.72;5049328;28;20401;-66
2022/05/23 13:28:44;;;;;;;;;;;;;;;13.48;22.86;97855.50;5018413;28;19925;-65
2022/05/23 13:31:22;;;;;;;;;;;;;;;13.52;23.09;97837.06;5051725;28;19943;-68
2022/05/23 13:33:48;;;;;;;;;;;;;;;13.55;22.60;97842.59;5052616;28;19940;-65
2022/05/23 13:36:13;;;;;;;;;;;;;;;13.64;24.13;97843.50;5052388;28;19928;-64
2022/05/23 13:38:43;;;;;;;;;;;;;;;13.74;23.26;97834.53;5052854;28;19925;-64
2022/05/23 13:41:24;;;;;;;;;;;;;;;13.82;23.21;97844.50;5035841;28;19933;-64
2022/05/23 13:43:50;;;;;;;;;;;;;;;13.78;22.40;97850.72;5052884;28;19986;-68
2022/05/23 13:46:26;;;;;;;;;;;;;;;13.67;21.84;97863.41;5051307;28;19932;-64
2022/05/23 13:48:52;;;;;;;;;;;;;;;13.58;21.66;97846.53;5034582;28;19999;-64
2022/05/23 13:51:23;;;;;;;;;;;;;;;13.53;22.00;97858.09;5052933;28;20225;-63
2022/05/23 13:54:03;;;;;;;;;;;;;;;13.55;22.14;97857.78;5051967;28;20258;-62
2022/05/23 13:56:28;;;;;;;;;;;;;;;13.60;22.20;97855.03;5051762;28;19929;-64
2022/05/23 13:58:59;;;;;;;;;;;;;;;13.63;22.07;97857.91;5050927;28;20016;-63
2022/05/23 14:01:45;;;;;;;;;;;;;;;13.68;22.13;97849.03;5034348;28;20398;-63
2022/05/23 14:04:11;;;;;;;;;;;;;;;13.67;21.02;97833.34;5052208;28;19924;-65
2022/05/23 14:06:38;;;;;;;;;;;;;;;13.70;21.88;97832.75;5052586;28;19928;-64
2022/05/23 14:09:05;;;;;;;;;;;;;;;13.67;21.77;97850.09;5050744;28;19983;-64
2022/05/23 14:11:32;;;;;;;;;;;;;;;13.67;21.76;97851.97;5050678;28;19933;-65
2022/05/23 14:14:11;;;;;;;;;;;;;;;13.58;22.21;97846.53;5052392;28;19924;-64
2022/05/23 14:16:36;;;;;;;;;;;;;;;13.65;21.62;97854.94;5050518;28;19976;-62
2022/05/23 14:19:20;;;;;;;;;;;;;;;13.63;21.65;97855.22;5052554;28;19964;-65
2022/05/23 14:21:46;;;;;;;;;;;;;;;13.73;21.69;97843.59;5052231;28;19929;-64